Time;durP1;ratioP1;P1;durP2;ratioP2;P2;SDS_P1;SDS_P2;PMS_P1;PMS_P2;Temp;Humidity;BMP_temperature;BMP_pressure;BME280_temperature;BME280_humidity;BME280_pressure;Samples;Min_cycle;Max_cycle;Signal;HPM_P1;HPM_P2
2022/10/12 00:00:49;;;;;;;16.23;8.63;;;7.00;99.90;;;;;;5047468;28;20091;-58
2022/10/12 00:03:44;;;;;;;17.90;9.52;;;7.00;99.90;;;;;;5063857;28;20048;-59
2022/10/12 00:06:16;;;;;;;18.05;9.35;;;7.00;99.90;;;;;;5053554;28;20131;-58
2022/10/12 00:08:47;;;;;;;13.32;9.02;;;7.00;99.90;;;;;;5047581;28;20483;-58
2022/10/12 00:11:23;;;;;;;14.43;9.25;;;7.00;99.90;;;;;;5060089;28;20423;-57
2022/10/12 00:14:18;;;;;;;12.63;8.90;;;7.00;99.90;;;;;;5024482;28;20155;-58
2022/10/12 00:17:00;;;;;;;17.92;10.15;;;7.00;99.90;;;;;;5059581;28;20139;-58
2022/10/12 00:19:26;;;;;;;17.17;10.65;;;7.00;99.90;;;;;;5049966;28;20101;-58
2022/10/12 00:21:52;;;;;;;15.57;8.95;;;7.00;99.90;;;;;;5060812;28;20048;-59
2022/10/12 00:24:18;;;;;;;14.25;9.82;;;7.00;99.90;;;;;;5046927;28;20173;-59
2022/10/12 00:26:52;;;;;;;12.70;9.38;;;7.00;99.90;;;;;;5044713;28;20056;-58
2022/10/12 00:29:22;;;;;;;15.27;9.68;;;6.90;99.90;;;;;;5031647;28;20107;-59
2022/10/12 00:31:47;;;;;;;12.32;9.07;;;6.90;99.90;;;;;;5042431;28;20142;-60
2022/10/12 00:34:13;;;;;;;18.52;10.23;;;6.90;99.90;;;;;;5046245;28;20052;-59
2022/10/12 00:36:39;;;;;;;16.27;10.07;;;6.90;99.90;;;;;;5064376;28;20048;-57
2022/10/12 00:39:08;;;;;;;13.43;10.05;;;6.90;99.90;;;;;;5060290;28;20041;-58
2022/10/12 00:41:39;;;;;;;16.27;10.25;;;6.90;99.90;;;;;;5060151;28;20048;-57
2022/10/12 00:44:59;;;;;;;14.10;9.60;;;6.80;99.90;;;;;;5069576;28;20074;-58
2022/10/12 00:47:35;;;;;;;15.90;9.65;;;6.80;99.90;;;;;;4960269;28;20058;-58
2022/10/12 00:50:34;;;;;;;13.10;8.93;;;6.80;99.90;;;;;;4963900;28;20616;-57
2022/10/12 00:53:05;;;;;;;12.10;8.98;;;6.80;99.90;;;;;;4908164;29;20059;-57
2022/10/12 00:58:34;;;;;;;16.13;9.50;;;6.80;99.90;;;;;;4867075;29;20060;-58
2022/10/12 01:01:04;;;;;;;11.63;8.63;;;6.80;99.90;;;;;;4882267;29;20353;-54
2022/10/12 01:03:50;;;;;;;12.48;8.52;;;6.80;99.90;;;;;;4883089;29;20067;-58
2022/10/12 01:06:31;;;;;;;11.70;8.30;;;6.80;99.90;;;;;;4870453;29;20060;-58
2022/10/12 01:08:57;;;;;;;13.52;8.75;;;6.90;99.90;;;;;;4875269;29;20588;-58
2022/10/12 01:11:22;;;;;;;16.15;8.20;;;6.90;99.90;;;;;;4891354;29;20066;-60
2022/10/12 01:13:48;;;;;;;10.80;7.70;;;6.90;99.90;;;;;;4881556;29;20350;-58
2022/10/12 01:16:51;;;;;;;11.40;7.75;;;6.90;99.90;;;;;;4866035;29;20193;-57
2022/10/12 01:19:20;;;;;;;11.05;7.22;;;7.00;99.90;;;;;;4861697;29;20060;-59
2022/10/12 01:21:55;;;;;;;10.85;7.05;;;7.00;99.90;;;;;;4912913;28;20101;-57
2022/10/12 01:24:34;;;;;;;12.13;6.82;;;7.00;99.90;;;;;;4940811;28;20057;-58
2022/10/12 01:27:14;;;;;;;14.45;6.53;;;7.00;99.90;;;;;;4950422;28;20072;-59
2022/10/12 01:30:13;;;;;;;15.15;7.25;;;7.00;99.90;;;;;;4980364;28;20470;-59
2022/10/12 01:32:54;;;;;;;13.88;7.10;;;7.10;99.90;;;;;;4989818;28;20646;-57
2022/10/12 01:35:34;;;;;;;14.07;6.85;;;7.10;99.90;;;;;;4999870;28;20063;-58
2022/10/12 01:38:09;;;;;;;12.02;6.72;;;7.10;99.90;;;;;;5066069;28;20058;-59
2022/10/12 01:41:34;;;;;;;9.70;7.43;;;7.10;99.90;;;;;;5061953;28;20363;-58
2022/10/12 01:44:00;;;;;;;12.98;6.82;;;7.10;99.90;;;;;;4984143;28;20046;-60
2022/10/12 01:46:26;;;;;;;11.00;7.03;;;7.20;99.90;;;;;;4984841;28;20053;-58
2022/10/12 01:48:58;;;;;;;13.43;7.25;;;7.20;99.90;;;;;;5006500;28;20118;-58
2022/10/12 01:51:39;;;;;;;13.25;6.60;;;7.20;99.90;;;;;;4993642;28;20065;-59
2022/10/12 01:54:37;;;;;;;13.27;7.18;;;7.20;99.90;;;;;;4977831;28;20357;-57
2022/10/12 01:57:24;;;;;;;8.63;5.80;;;7.10;99.90;;;;;;5001439;28;20263;-59
2022/10/12 02:00:12;;;;;;;12.27;6.38;;;7.10;99.90;;;;;;4996629;28;20134;-60
2022/10/12 02:03:07;;;;;;;17.00;7.80;;;7.10;99.90;;;;;;4975350;28;20583;-59
2022/10/12 02:05:41;;;;;;;12.30;6.95;;;7.10;99.90;;;;;;4978275;28;20221;-58
2022/10/12 02:08:34;;;;;;;10.95;6.43;;;7.10;99.90;;;;;;5003374;28;20096;-59
2022/10/12 02:11:08;;;;;;;19.88;7.60;;;7.00;99.90;;;;;;4997273;28;20117;-58
2022/10/12 02:13:37;;;;;;;;;;;7.00;99.90;;;;;;4997446;28;20054;-59
2022/10/12 02:16:15;;;;;;;9.27;6.13;;;6.90;99.90;;;;;;4995316;28;20318;-59
2022/10/12 02:18:51;;;;;;;9.77;5.72;;;6.90;99.90;;;;;;5027451;28;20060;-59
2022/10/12 02:21:23;;;;;;;13.80;6.57;;;6.80;99.90;;;;;;5066530;28;20048;-58
2022/10/12 02:23:51;;;;;;;8.63;5.40;;;6.80;99.90;;;;;;5066169;28;20044;-57
2022/10/12 02:26:18;;;;;;;9.70;5.30;;;6.80;99.90;;;;;;5043734;28;20052;-58
2022/10/12 02:28:46;;;;;;;9.70;5.63;;;6.80;99.90;;;;;;5044605;28;20390;-59
2022/10/12 02:31:36;;;;;;;7.53;5.93;;;6.80;99.90;;;;;;5060893;28;20496;-58
2022/10/12 02:34:18;;;;;;;10.25;5.53;;;6.80;99.90;;;;;;5059836;28;20052;-57
2022/10/12 02:36:49;;;;;;;9.18;6.55;;;6.80;99.90;;;;;;5054959;28;20500;-57
2022/10/12 02:40:11;;;;;;;10.38;5.70;;;6.80;99.90;;;;;;5060440;28;20052;-57
2022/10/12 02:42:42;;;;;;;11.23;5.72;;;6.80;99.90;;;;;;4980753;28;20062;-56
2022/10/12 02:45:42;;;;;;;;;;;;;;;;;;;;;
2022/10/12 02:48:12;;;;;;;13.82;5.60;;;6.70;99.90;;;;;;4974208;28;20047;-58
2022/10/12 02:50:38;;;;;;;13.95;5.90;;;6.80;99.90;;;;;;4965772;28;20053;-57
2022/10/12 02:53:16;;;;;;;14.82;6.90;;;6.80;99.90;;;;;;4964647;28;20059;-57
2022/10/12 02:55:53;;;;;;;13.77;6.05;;;6.80;99.90;;;;;;4966127;28;20050;-58
2022/10/12 02:58:45;;;;;;;9.95;6.00;;;6.80;99.90;;;;;;4965080;28;20601;-58
2022/10/12 03:01:12;;;;;;;8.30;4.82;;;6.80;99.90;;;;;;4900712;29;20052;-57
2022/10/12 03:03:38;;;;;;;9.45;4.63;;;6.80;99.90;;;;;;4902725;29;20142;-58
2022/10/12 03:06:18;;;;;;;6.63;3.78;;;6.70;99.90;;;;;;4885773;29;20500;-58
2022/10/12 03:08:47;;;;;;;7.05;3.20;;;6.60;99.90;;;;;;4868749;29;20091;-58
2022/10/12 03:11:13;;;;;;;5.22;4.60;;;6.60;99.90;;;;;;4881958;29;20602;-58
2022/10/12 03:13:45;;;;;;;4.18;3.38;;;6.50;99.90;;;;;;4893195;29;20068;-57
2022/10/12 03:16:11;;;;;;;5.75;3.88;;;6.40;99.90;;;;;;4885010;29;20059;-58
2022/10/12 03:21:59;;;;;;;4.32;3.78;;;6.30;99.90;;;;;;4920268;29;20055;-56
2022/10/12 03:24:24;;;;;;;8.00;3.75;;;6.30;99.90;;;;;;4927884;29;20491;-58
2022/10/12 03:26:50;;;;;;;5.53;3.90;;;6.30;99.90;;;;;;4947713;28;20118;-58
2022/10/12 03:29:16;;;;;;;5.55;4.50;;;6.30;99.90;;;;;;4949345;28;20089;-58
2022/10/12 03:31:42;;;;;;;4.18;3.28;;;6.30;99.90;;;;;;4927447;29;20051;-58
2022/10/12 03:34:26;;;;;;;8.43;3.78;;;6.30;99.90;;;;;;4939836;28;20142;-59
2022/10/12 03:36:52;;;;;;;9.02;4.68;;;6.30;99.90;;;;;;4940217;28;20057;-59
2022/10/12 03:39:17;;;;;;;9.38;4.85;;;6.30;99.90;;;;;;5001237;28;20398;-58
2022/10/12 03:41:49;;;;;;;8.30;5.13;;;6.30;99.90;;;;;;4999327;28;20053;-59
2022/10/12 03:44:15;;;;;;;8.32;5.15;;;6.30;99.90;;;;;;5000137;28;20056;-58
2022/10/12 03:46:41;;;;;;;7.68;4.60;;;6.30;99.90;;;;;;5014945;28;20049;-57
2022/10/12 03:49:07;;;;;;;7.90;4.97;;;6.30;99.90;;;;;;5006374;28;20645;-58
2022/10/12 03:51:38;;;;;;;8.90;5.68;;;6.30;99.90;;;;;;5009215;28;20095;-59
2022/10/12 03:54:04;;;;;;;9.05;5.15;;;6.30;99.90;;;;;;4998470;28;20057;-58
2022/10/12 03:56:39;;;;;;;10.07;6.03;;;6.30;99.90;;;;;;5001163;28;20594;-58
2022/10/12 03:59:16;;;;;;;7.13;4.65;;;6.30;99.90;;;;;;5019461;28;20057;-57
2022/10/12 04:01:47;;;;;;;8.45;4.88;;;6.40;99.90;;;;;;5018554;28;20056;-58
2022/10/12 04:04:14;;;;;;;8.75;5.43;;;6.30;99.90;;;;;;5018768;28;20393;-58
2022/10/12 04:06:40;;;;;;;8.00;4.68;;;6.30;99.90;;;;;;4997256;28;20792;-58
2022/10/12 04:09:05;;;;;;;8.30;4.75;;;6.40;99.90;;;;;;5031184;28;20041;-58
2022/10/12 04:11:42;;;;;;;13.38;6.25;;;6.30;99.90;;;;;;5022158;28;20407;-59
2022/10/12 04:14:08;;;;;;;9.57;6.10;;;6.40;99.90;;;;;;5002269;28;20088;-58
2022/10/12 04:16:34;;;;;;;12.90;7.07;;;6.30;99.90;;;;;;5006858;28;20128;-58
2022/10/12 04:19:21;;;;;;;10.82;7.03;;;6.40;99.90;;;;;;5025501;28;20053;-58
2022/10/12 04:21:50;;;;;;;9.18;5.93;;;6.40;99.90;;;;;;5023498;28;20132;-58
2022/10/12 04:24:16;;;;;;;12.93;6.55;;;6.30;99.90;;;;;;5017323;28;20099;-57
2022/10/12 04:26:42;;;;;;;10.70;6.43;;;6.30;99.90;;;;;;5016124;28;20390;-58
2022/10/12 04:29:31;;;;;;;12.00;7.93;;;6.30;99.90;;;;;;5015377;28;20096;-57
2022/10/12 04:31:56;;;;;;;15.18;7.57;;;6.30;99.90;;;;;;5010656;28;20049;-58
2022/10/12 04:34:34;;;;;;;16.83;7.93;;;6.30;99.90;;;;;;5020857;28;20111;-59
2022/10/12 04:37:03;;;;;;;12.40;8.07;;;6.40;99.90;;;;;;5020864;28;20049;-58
2022/10/12 04:39:29;;;;;;;13.60;7.93;;;6.40;99.90;;;;;;5017976;28;20139;-59
2022/10/12 04:41:55;;;;;;;17.77;8.30;;;6.40;99.90;;;;;;5020371;28;20068;-58
2022/10/12 04:44:21;;;;;;;13.13;8.10;;;6.40;99.90;;;;;;5019174;28;20053;-58
2022/10/12 04:46:47;;;;;;;15.27;7.78;;;6.40;99.90;;;;;;5021026;28;20052;-58
2022/10/12 04:49:16;;;;;;;15.25;8.80;;;6.40;99.90;;;;;;5045338;28;20061;-59
2022/10/12 04:51:42;;;;;;;13.38;8.07;;;6.40;99.90;;;;;;5037856;28;20056;-58
2022/10/12 04:54:14;;;;;;;19.65;9.82;;;6.40;99.90;;;;;;5038645;28;20475;-58
2022/10/12 04:56:40;;;;;;;15.20;9.07;;;6.40;99.90;;;;;;5044989;28;20050;-59
2022/10/12 04:59:09;;;;;;;15.30;9.40;;;6.40;99.90;;;;;;5039936;28;20072;-56
2022/10/12 05:01:37;;;;;;;17.00;8.85;;;6.40;99.90;;;;;;5039365;28;20106;-58
2022/10/12 05:04:15;;;;;;;11.43;8.90;;;6.40;99.90;;;;;;5044929;28;20055;-58
2022/10/12 05:06:56;;;;;;;15.05;9.10;;;6.40;99.90;;;;;;5039224;28;20191;-58
2022/10/12 05:09:22;;;;;;;15.90;8.70;;;6.40;99.90;;;;;;5026871;28;20245;-58
2022/10/12 05:11:54;;;;;;;12.93;8.73;;;6.40;99.90;;;;;;5044022;28;20041;-57
2022/10/12 05:14:31;;;;;;;15.50;8.73;;;6.40;99.90;;;;;;5035059;28;20059;-59
2022/10/12 05:17:06;;;;;;;14.45;8.70;;;6.40;99.90;;;;;;5038257;28;20053;-58
2022/10/12 05:19:42;;;;;;;13.13;8.05;;;6.40;99.90;;;;;;5029911;28;20055;-58
2022/10/12 05:22:16;;;;;;;17.88;9.73;;;6.40;99.90;;;;;;5027040;28;20085;-58
2022/10/12 05:25:02;;;;;;;15.38;7.88;;;6.30;99.90;;;;;;5035755;28;20049;-60
2022/10/12 05:27:39;;;;;;;18.02;9.35;;;6.30;99.90;;;;;;5045510;28;20052;-59
2022/10/12 05:30:06;;;;;;;15.65;8.35;;;6.30;99.90;;;;;;5031411;28;20060;-58
2022/10/12 05:32:31;;;;;;;14.25;8.13;;;6.30;99.90;;;;;;5043746;28;20052;-58
2022/10/12 05:34:57;;;;;;;15.70;7.90;;;6.20;99.90;;;;;;5040051;28;20052;-58
2022/10/12 05:37:23;;;;;;;12.00;8.07;;;6.20;99.90;;;;;;5038819;28;20472;-58
2022/10/12 05:39:52;;;;;;;15.02;9.00;;;6.20;99.90;;;;;;5039657;28;20045;-57
2022/10/12 05:42:18;;;;;;;16.65;8.25;;;6.20;99.90;;;;;;5017782;28;20057;-57
2022/10/12 05:44:52;;;;;;;14.57;9.10;;;6.20;99.90;;;;;;5043534;28;20041;-58
2022/10/12 05:47:21;;;;;;;17.77;9.68;;;6.10;99.90;;;;;;5045487;28;20056;-58
2022/10/12 05:49:50;;;;;;;19.70;10.57;;;6.10;99.90;;;;;;5047875;28;20056;-58
2022/10/12 05:52:19;;;;;;;15.07;8.63;;;6.10;99.90;;;;;;5043078;28;20475;-58
2022/10/12 05:54:55;;;;;;;18.60;11.38;;;6.00;99.90;;;;;;5045965;28;20048;-58
2022/10/12 05:57:21;;;;;;;16.35;10.50;;;6.00;99.90;;;;;;5038999;28;20053;-58
2022/10/12 05:59:47;;;;;;;18.15;10.13;;;6.00;99.90;;;;;;5037596;28;20088;-58
2022/10/12 06:02:17;;;;;;;16.30;10.73;;;5.90;99.90;;;;;;5048535;28;20056;-57
2022/10/12 06:04:43;;;;;;;13.48;9.82;;;6.00;99.90;;;;;;5044469;28;20065;-57
2022/10/12 06:07:08;;;;;;;14.75;10.82;;;5.90;99.90;;;;;;5044657;28;20044;-56
2022/10/12 06:09:37;;;;;;;21.00;10.70;;;5.90;99.90;;;;;;5048029;28;20048;-58
2022/10/12 06:12:04;;;;;;;16.70;10.18;;;5.90;99.90;;;;;;5037058;28;20052;-58
2022/10/12 06:14:30;;;;;;;21.20;10.68;;;5.90;99.90;;;;;;5039002;28;20064;-57
2022/10/12 06:16:55;;;;;;;15.35;9.52;;;5.90;99.90;;;;;;5044022;28;20048;-58
2022/10/12 06:19:21;;;;;;;16.73;11.18;;;5.90;99.90;;;;;;5040034;28;20088;-58
2022/10/12 06:21:47;;;;;;;10.75;9.27;;;5.90;99.90;;;;;;5027691;28;20122;-58
2022/10/12 06:24:16;;;;;;;13.38;9.93;;;5.90;99.90;;;;;;5041683;28;20049;-57
2022/10/12 06:26:41;;;;;;;13.82;9.60;;;5.90;99.90;;;;;;5045059;28;20045;-58
2022/10/12 06:29:07;;;;;;;22.00;10.18;;;6.00;99.90;;;;;;5042988;28;20055;-57
2022/10/12 06:31:33;;;;;;;16.60;9.60;;;6.00;99.90;;;;;;5042425;28;20496;-58
2022/10/12 06:33:59;;;;;;;19.42;9.77;;;6.10;99.90;;;;;;5046010;28;20063;-59
2022/10/12 06:36:31;;;;;;;14.10;10.25;;;6.10;99.90;;;;;;5043925;28;20056;-58
2022/10/12 06:39:00;;;;;;;17.15;9.85;;;6.10;99.90;;;;;;5042874;28;20067;-59
2022/10/12 06:41:26;;;;;;;14.32;9.82;;;6.20;99.90;;;;;;5041796;28;20820;-58
2022/10/12 06:43:51;;;;;;;16.88;10.10;;;6.20;99.90;;;;;;5049299;28;20552;-58
2022/10/12 06:46:17;;;;;;;18.30;9.43;;;6.30;99.90;;;;;;5042060;28;20057;-58
2022/10/12 06:48:43;;;;;;;19.00;10.10;;;6.50;99.90;;;;;;5067483;28;20109;-58
2022/10/12 06:51:09;;;;;;;14.85;8.25;;;6.70;99.90;;;;;;5061636;28;20052;-56
2022/10/12 06:53:35;;;;;;;15.23;9.52;;;6.80;99.90;;;;;;5050792;28;20151;-58
2022/10/12 06:56:08;;;;;;;16.30;8.88;;;7.00;99.90;;;;;;5061795;28;20503;-58
2022/10/12 06:58:39;;;;;;;;;;;7.10;99.90;;;;;;5066621;28;20506;-58
2022/10/12 07:01:07;;;;;;;17.20;9.15;;;7.20;99.90;;;;;;5030496;28;19924;-57
2022/10/12 07:03:39;;;;;;;13.52;8.27;;;7.40;99.90;;;;;;5030987;28;20105;-55
2022/10/12 07:06:10;;;;;;;15.55;9.30;;;7.50;99.90;;;;;;5047034;28;20048;-58
2022/10/12 07:08:40;;;;;;;19.63;9.27;;;7.60;99.90;;;;;;5060521;28;20098;-55
2022/10/12 07:11:12;;;;;;;19.05;9.50;;;7.70;99.90;;;;;;5044215;28;20529;-55
2022/10/12 07:13:38;;;;;;;17.15;8.88;;;7.80;99.90;;;;;;5061475;28;20447;-58
2022/10/12 07:16:04;;;;;;;23.98;9.30;;;7.90;99.90;;;;;;5043524;28;20133;-57
2022/10/12 07:18:30;;;;;;;17.25;9.68;;;7.90;99.90;;;;;;5058627;28;20060;-57
2022/10/12 07:20:58;;;;;;;18.58;9.68;;;7.90;99.90;;;;;;5063334;28;20116;-58
2022/10/12 07:23:25;;;;;;;18.27;9.77;;;7.90;99.90;;;;;;5066037;28;20045;-58
2022/10/12 07:25:51;;;;;;;26.77;9.43;;;7.90;99.90;;;;;;5060658;28;20081;-58
2022/10/12 07:28:18;;;;;;;14.63;9.15;;;7.80;99.90;;;;;;5066144;28;20040;-58
2022/10/12 07:30:45;;;;;;;15.93;8.40;;;7.80;99.90;;;;;;5059115;28;20458;-58
2022/10/12 07:33:11;;;;;;;18.45;9.10;;;7.80;99.90;;;;;;5061760;28;20040;-57
2022/10/12 07:35:37;;;;;;;13.75;8.52;;;7.70;99.90;;;;;;5060678;28;20101;-58
2022/10/12 07:38:03;;;;;;;18.63;9.00;;;7.70;99.90;;;;;;5061640;28;20044;-57
2022/10/12 07:40:29;;;;;;;16.60;8.38;;;7.70;99.90;;;;;;5062125;28;21097;-58
2022/10/12 07:42:55;;;;;;;17.80;8.65;;;7.60;99.90;;;;;;5045102;28;20106;-58
2022/10/12 07:45:27;;;;;;;18.63;9.13;;;7.60;99.90;;;;;;5066632;28;20040;-58
2022/10/12 07:47:54;;;;;;;19.67;8.87;;;7.80;99.90;;;;;;5061429;28;20056;-58
2022/10/12 07:50:20;;;;;;;16.65;8.98;;;8.00;99.90;;;;;;5062774;28;20053;-59
2022/10/12 07:52:46;;;;;;;19.27;8.48;;;8.20;99.90;;;;;;5061019;28;20042;-58
2022/10/12 07:55:12;;;;;;;12.95;8.40;;;8.40;99.90;;;;;;5045178;28;20478;-58
2022/10/12 07:57:37;;;;;;;17.20;9.95;;;8.60;99.90;;;;;;5060511;28;20049;-59
2022/10/12 08:00:07;;;;;;;14.90;8.48;;;8.80;99.90;;;;;;5065031;28;20688;-57
2022/10/12 08:02:34;;;;;;;16.80;9.48;;;8.90;99.90;;;;;;5041549;28;20533;-58
2022/10/12 08:05:00;;;;;;;16.08;9.32;;;9.00;99.90;;;;;;5057487;28;20499;-57
2022/10/12 08:07:32;;;;;;;16.73;9.20;;;9.10;99.90;;;;;;5061117;28;20055;-58
2022/10/12 08:09:57;;;;;;;20.80;9.18;;;9.10;99.90;;;;;;5060515;28;20075;-59
2022/10/12 08:12:23;;;;;;;20.48;9.02;;;9.10;99.90;;;;;;5034379;28;20484;-58
2022/10/12 08:14:49;;;;;;;18.27;8.77;;;9.20;99.90;;;;;;5059525;28;20442;-56
2022/10/12 08:17:14;;;;;;;20.52;8.88;;;9.20;99.90;;;;;;5064913;28;20135;-58
2022/10/12 08:19:40;;;;;;;18.60;8.50;;;9.30;99.90;;;;;;5064961;28;20044;-58
2022/10/12 08:22:06;;;;;;;14.63;8.27;;;9.30;99.90;;;;;;5065335;28;20040;-56
2022/10/12 08:24:34;;;;;;;16.23;7.68;;;9.30;99.90;;;;;;5062694;28;20112;-58
2022/10/12 08:27:00;;;;;;;14.07;8.18;;;9.40;99.90;;;;;;5040927;28;20485;-58
2022/10/12 08:29:25;;;;;;;17.00;7.47;;;9.40;99.90;;;;;;5059294;28;20048;-59
2022/10/12 08:31:53;;;;;;;16.23;7.57;;;9.50;99.90;;;;;;5064499;28;20048;-58
2022/10/12 08:34:19;;;;;;;18.30;7.35;;;9.50;99.90;;;;;;5059736;28;20041;-59
2022/10/12 08:36:45;;;;;;;16.67;7.47;;;9.60;99.90;;;;;;5058842;28;20063;-58
2022/10/12 08:39:10;;;;;;;17.13;7.30;;;9.70;99.90;;;;;;5059851;28;20041;-58
2022/10/12 08:41:57;;;;;;;15.55;7.15;;;9.80;99.90;;;;;;5060659;28;20623;-59
2022/10/12 08:45:05;;;;;;;18.77;7.53;;;9.90;99.90;;;;;;5057147;28;20048;-58
2022/10/12 08:47:45;;;;;;;16.10;7.50;;;10.10;99.90;;;;;;5063312;28;20478;-58
2022/10/12 08:50:19;;;;;;;16.20;7.53;;;10.20;99.90;;;;;;5063613;28;20052;-58
2022/10/12 08:53:18;;;;;;;13.48;7.68;;;10.30;99.90;;;;;;5063341;28;20079;-58
2022/10/12 08:55:45;;;;;;;15.40;7.95;;;10.30;99.90;;;;;;4956693;28;20074;-58
2022/10/12 08:58:19;;;;;;;19.20;8.13;;;10.40;99.90;;;;;;4958575;28;20121;-58
2022/10/12 09:00:51;;;;;;;15.70;8.02;;;10.50;99.90;;;;;;4962800;28;20050;-58
2022/10/12 09:03:43;;;;;;;16.40;7.50;;;10.60;99.90;;;;;;4949110;28;20319;-59
2022/10/12 09:06:33;;;;;;;19.73;8.18;;;10.80;99.90;;;;;;4941164;28;20113;-61
2022/10/12 09:09:21;;;;;;;18.77;8.15;;;10.90;99.90;;;;;;4903329;29;20052;-59
2022/10/12 09:11:53;;;;;;;16.42;8.50;;;11.00;99.90;;;;;;4904429;29;20060;-59
2022/10/12 09:14:24;;;;;;;22.92;8.77;;;11.10;99.90;;;;;;4886476;29;20067;-59
2022/10/12 09:16:53;;;;;;;13.80;8.90;;;11.20;99.90;;;;;;4885009;29;20083;-59
2022/10/12 09:19:23;;;;;;;17.48;8.75;;;11.20;99.90;;;;;;4889880;29;20060;-59
2022/10/12 09:21:49;;;;;;;15.07;8.25;;;11.30;99.90;;;;;;4903043;29;20404;-59
2022/10/12 09:24:27;;;;;;;18.85;8.65;;;11.40;99.90;;;;;;4873147;29;20060;-60
2022/10/12 09:26:59;;;;;;;15.65;8.63;;;11.50;99.90;;;;;;4904137;29;20121;-59
2022/10/12 09:29:30;;;;;;;19.10;8.60;;;11.50;99.90;;;;;;4910398;29;20170;-60
2022/10/12 09:32:33;;;;;;;15.60;8.43;;;11.50;99.90;;;;;;4924688;28;20675;-59
2022/10/12 09:35:06;;;;;;;15.77;8.98;;;11.70;99.90;;;;;;4975733;28;20452;-59
2022/10/12 09:37:34;;;;;;;18.15;8.77;;;11.80;99.90;;;;;;4984503;28;20542;-60
2022/10/12 09:40:00;;;;;;;13.82;8.55;;;11.90;99.90;;;;;;4982716;28;20165;-59
2022/10/12 09:42:26;;;;;;;19.48;9.27;;;11.90;99.90;;;;;;4983859;28;20053;-60
2022/10/12 09:45:00;;;;;;;20.17;8.88;;;12.00;99.90;;;;;;4983778;28;20055;-60
2022/10/12 09:47:30;;;;;;;16.17;9.57;;;12.10;99.90;;;;;;5061891;28;20064;-60
2022/10/12 09:49:59;;;;;;;15.80;9.23;;;12.10;99.90;;;;;;5044009;28;20060;-60
2022/10/12 09:52:34;;;;;;;18.35;8.98;;;12.20;99.90;;;;;;5044178;28;20461;-60
2022/10/12 09:55:00;;;;;;;18.00;9.30;;;12.30;99.90;;;;;;5063257;28;20047;-60
2022/10/12 09:57:36;;;;;;;17.17;8.73;;;12.30;99.90;;;;;;5045155;28;20056;-60
2022/10/12 10:00:26;;;;;;;18.33;8.80;;;12.50;99.90;;;;;;5045153;28;20087;-60
2022/10/12 10:02:52;;;;;;;17.90;8.13;;;12.50;99.90;;;;;;5044624;28;20059;-59
2022/10/12 10:05:31;;;;;;;13.88;7.30;;;12.50;99.90;;;;;;5063208;28;20114;-60
2022/10/12 10:08:22;;;;;;;13.55;6.35;;;12.60;99.90;;;;;;5063672;28;20059;-59
2022/10/12 10:11:09;;;;;;;16.90;7.90;;;12.70;99.90;;;;;;5063221;28;20094;-59
2022/10/12 10:13:36;;;;;;;21.48;7.28;;;12.80;99.90;;;;;;5052822;28;20052;-59
2022/10/12 10:16:08;;;;;;;14.70;7.55;;;12.90;99.90;;;;;;5065160;28;20057;-59
2022/10/12 10:18:37;;;;;;;17.85;6.93;;;13.00;99.90;;;;;;5047500;28;20060;-60
2022/10/12 10:21:09;;;;;;;17.20;7.18;;;13.10;99.90;;;;;;5044968;28;20786;-57
2022/10/12 10:23:42;;;;;;;14.23;7.30;;;13.10;99.90;;;;;;5058276;28;20055;-59
2022/10/12 10:26:14;;;;;;;13.50;7.00;;;13.20;99.90;;;;;;5067036;28;20051;-59
2022/10/12 10:28:42;;;;;;;13.15;5.55;;;13.30;99.90;;;;;;5062536;28;20076;-58
2022/10/12 10:31:20;;;;;;;14.90;6.25;;;13.30;99.90;;;;;;5043611;28;20056;-58
2022/10/12 10:34:16;;;;;;;13.35;6.50;;;13.30;99.90;;;;;;5065048;28;20446;-60
2022/10/12 10:37:03;;;;;;;18.33;6.13;;;13.40;99.90;;;;;;5058320;28;20128;-59
2022/10/12 10:39:51;;;;;;;15.50;6.22;;;13.40;99.90;;;;;;5058239;28;20617;-59
2022/10/12 10:42:49;;;;;;;14.32;6.18;;;13.40;99.90;;;;;;5065032;28;20043;-59
2022/10/12 10:45:43;;;;;;;16.73;5.80;;;13.50;99.90;;;;;;5072943;28;20043;-59
2022/10/12 10:48:25;;;;;;;10.73;5.50;;;13.40;99.90;;;;;;5061517;28;20052;-58
2022/10/12 10:51:02;;;;;;;13.30;5.13;;;13.40;99.90;;;;;;5058000;28;20284;-60
2022/10/12 10:53:45;;;;;;;12.63;5.30;;;13.40;99.90;;;;;;5037789;28;20060;-60
2022/10/12 10:56:17;;;;;;;17.50;5.22;;;13.50;99.90;;;;;;5057598;28;20542;-58
2022/10/12 10:58:47;;;;;;;13.75;4.45;;;13.50;99.90;;;;;;5062358;28;20397;-59
2022/10/12 11:01:34;;;;;;;14.52;5.25;;;13.40;99.90;;;;;;5066318;28;20077;-59
2022/10/12 11:04:07;;;;;;;15.70;5.65;;;13.50;99.90;;;;;;5061230;28;20052;-58
2022/10/12 11:06:46;;;;;;;15.38;5.03;;;13.40;99.90;;;;;;5050859;28;20067;-56
2022/10/12 11:09:34;;;;;;;11.93;4.85;;;13.40;99.90;;;;;;5059839;28;20192;-60
2022/10/12 11:12:08;;;;;;;7.65;4.07;;;13.50;99.90;;;;;;5055037;28;20052;-60
2022/10/12 11:14:46;;;;;;;14.40;4.47;;;13.40;99.90;;;;;;5040318;28;20067;-59
2022/10/12 11:17:23;;;;;;;12.38;5.07;;;13.50;99.90;;;;;;5054363;28;20045;-59
2022/10/12 11:20:04;;;;;;;12.68;5.18;;;13.50;99.90;;;;;;5059034;28;20077;-59
2022/10/12 11:22:39;;;;;;;12.88;5.65;;;13.50;99.90;;;;;;5067161;28;20052;-59
2022/10/12 11:25:13;;;;;;;12.20;4.90;;;13.50;99.90;;;;;;5047311;28;20056;-59
2022/10/12 11:27:41;;;;;;;14.93;5.72;;;13.50;99.90;;;;;;5062635;28;20116;-59
2022/10/12 11:30:19;;;;;;;15.90;6.05;;;13.60;99.90;;;;;;5054907;28;20048;-60
2022/10/12 11:33:14;;;;;;;18.48;9.27;;;13.70;99.90;;;;;;5045347;28;20052;-59
2022/10/12 11:35:45;;;;;;;14.13;5.75;;;13.70;99.90;;;;;;4950861;28;20059;-60
2022/10/12 11:38:13;;;;;;;12.95;5.55;;;13.80;99.90;;;;;;4951528;28;20121;-59
2022/10/12 11:41:08;;;;;;;13.82;5.50;;;13.80;99.90;;;;;;4966312;28;20062;-58
2022/10/12 11:44:02;;;;;;;13.75;6.05;;;13.80;99.90;;;;;;4942853;28;20120;-60
2022/10/12 11:46:37;;;;;;;14.48;4.50;;;13.80;99.90;;;;;;4959322;28;20063;-59
2022/10/12 11:49:09;;;;;;;12.52;4.50;;;13.80;99.90;;;;;;4961963;28;20059;-59
2022/10/12 11:51:34;;;;;;;11.10;4.10;;;13.90;99.90;;;;;;4962502;28;20053;-60
2022/10/12 11:54:30;;;;;;;9.13;3.30;;;13.90;99.90;;;;;;4964364;28;20904;-60
2022/10/12 11:57:03;;;;;;;10.98;3.40;;;13.80;99.90;;;;;;4959547;28;20058;-60
2022/10/12 11:59:41;;;;;;;;;;;13.80;99.90;;;;;;4961761;28;20051;-60
2022/10/12 12:02:31;;;;;;;15.57;4.38;;;13.80;99.90;;;;;;4961142;28;19936;-59
2022/10/12 12:04:58;;;;;;;16.50;4.68;;;13.80;99.90;;;;;;4968892;28;20086;-60
2022/10/12 12:07:53;;;;;;;11.02;4.22;;;13.80;99.90;;;;;;4965664;28;20094;-59
2022/10/12 12:10:24;;;;;;;14.77;4.43;;;13.90;99.90;;;;;;4960641;28;20509;-60
2022/10/12 12:13:13;;;;;;;13.10;5.10;;;14.00;99.90;;;;;;5005427;28;20433;-60
2022/10/12 12:15:42;;;;;;;13.48;4.35;;;14.00;99.90;;;;;;5035257;28;20655;-59
2022/10/12 12:18:18;;;;;;;13.60;4.00;;;14.00;99.90;;;;;;5046592;28;20063;-60
2022/10/12 12:20:45;;;;;;;13.25;4.93;;;14.00;99.90;;;;;;5037197;28;20048;-59
2022/10/12 12:23:41;;;;;;;12.00;4.15;;;14.00;99.90;;;;;;5045645;28;20122;-59
2022/10/12 12:26:09;;;;;;;17.23;5.20;;;14.00;99.90;;;;;;5042786;28;20135;-60
2022/10/12 12:28:38;;;;;;;11.95;4.32;;;14.10;99.90;;;;;;5046583;28;20515;-59
2022/10/12 12:31:07;;;;;;;13.25;3.85;;;14.10;99.90;;;;;;5049466;28;20072;-61
2022/10/12 12:33:40;;;;;;;12.80;4.45;;;14.10;99.90;;;;;;5066860;28;20117;-59
2022/10/12 12:36:13;;;;;;;11.55;4.80;;;14.10;99.90;;;;;;5066009;28;20080;-60
2022/10/12 12:38:48;;;;;;;13.38;4.10;;;14.20;99.90;;;;;;5063008;28;20455;-59
2022/10/12 12:41:15;;;;;;;11.95;4.45;;;14.20;99.90;;;;;;5061388;28;20059;-59
2022/10/12 12:43:43;;;;;;;14.32;4.38;;;14.20;99.90;;;;;;5060634;28;20129;-61
2022/10/12 12:46:12;;;;;;;12.70;5.22;;;14.20;99.90;;;;;;5065575;28;20059;-60
2022/10/12 12:48:38;;;;;;;11.88;4.15;;;14.30;99.90;;;;;;5067242;28;20053;-60
2022/10/12 12:51:25;;;;;;;11.45;4.10;;;14.30;99.90;;;;;;5062049;28;20040;-60
2022/10/12 12:54:11;;;;;;;14.80;4.13;;;14.30;99.90;;;;;;5069239;28;20134;-61
2022/10/12 12:57:08;;;;;;;14.85;4.45;;;14.30;99.90;;;;;;5064587;28;20060;-59
2022/10/12 12:59:59;;;;;;;13.75;4.20;;;14.20;99.90;;;;;;5043693;28;20071;-60
2022/10/12 13:02:51;;;;;;;9.90;4.18;;;14.20;99.90;;;;;;5063134;28;20166;-59
2022/10/12 13:05:20;;;;;;;10.13;3.38;;;14.30;99.90;;;;;;5047611;28;20126;-60
2022/10/12 13:08:13;;;;;;;12.68;4.10;;;14.30;99.90;;;;;;5061856;28;20401;-60
2022/10/12 13:11:13;;;;;;;11.15;4.20;;;14.30;99.90;;;;;;5052925;28;20052;-60
2022/10/12 13:13:48;;;;;;;13.10;4.45;;;14.30;99.90;;;;;;5027278;28;20094;-59
2022/10/12 13:16:36;;;;;;;7.88;4.07;;;14.30;99.90;;;;;;5064317;28;20064;-59
2022/10/12 13:19:08;;;;;;;11.88;4.63;;;14.30;99.90;;;;;;5040701;28;20131;-59
2022/10/12 13:21:44;;;;;;;9.88;3.42;;;14.30;99.90;;;;;;5058864;28;20500;-59
2022/10/12 13:24:10;;;;;;;14.45;3.67;;;14.20;99.90;;;;;;5067525;28;20067;-59
2022/10/12 13:26:39;;;;;;;12.82;3.80;;;14.30;99.90;;;;;;5065210;28;20056;-59